Camas, WA

6:07 PM PDT on July 29, 2016 (GMT -0700)
Lake Pointe | | Change Station

Elev 367 ft 45.61 °N, 122.43 °W | Updated 4 seconds ago

Clear
Clear
89.5 °F
Feels Like 90 °F
N
8.0
Wind Variable Wind from NW
Gusts 14.0 mph

Today
High -- | Low -- °F
--% Chance of Precip.
Yesterday
High -- | Low -- °F
Precip. -- in
Pressure 29.84 in
Visibility 10.0 miles
Clouds Clear
Heat Index 90 °F
Dew Point 62 °F
Humidity 40%
Rainfall 0.00 in
Snow Depth Not available.
5:50 AM 8:40 PM
Waning Crescent, 17% visible
METAR KTTD 300053Z VRB06KT 10SM CLR 34/15 A2984 RMK AO2 SLP104 T03440150
Pressure 29.84 in
Visibility 10.0 miles
Clouds Clear
Heat Index 90 °F
Dew Point 62 °F
Humidity 40%
Rainfall 0.00 in
Snow Depth Not available.
5:50 AM 8:40 PM
Waning Crescent, 17% visible
METAR KTTD 300053Z VRB06KT 10SM CLR 34/15 A2984 RMK AO2 SLP104 T03440150

10-Day Weather Forecast

Almanac

Astronomy

Jul. 29, 2016 Rise Set
Actual Time
Civil Twilight
Nautical Twilight
Astronomical Twilight
Moon
Length of Visible Light
Length of Day
Tomorrow will be .
, % of the Moon is Illuminated

Today's Extremes

State Highs State Lows

Community

WunderPhotos

Upload Photos

1,928,463 photos uploaded!

WunderBlog® & News

Nearby

Air Quality

  Air Quality AQ Index Pollutant
Not available.

Snow Depth

Station Depth Elevation

Earthquake Activity

City Distance Mag. Time & Date
Minimum magnitude displayed is 2.5.

Coastal Water Temperatures

Place Temperature

Stations

Nearby Weather Stations

Station Location Temp. Windchill Dew Point Humidity Wind Precip. Elev Updated Type
                   

Watches & Warnings

There are currently no watches in effect.